METAR AND TAF INFORMATION
METAR FOR KMSP
KMSP 130653Z 00000KT 10SM CLR 08/M01 A3005 RMK AO2 SLP177 T00831006
KMSP 130553Z 07003KT 10SM CLR 09/M02 A3005 RMK AO2 SLP180 T00941017 10150 20083 401610061 50002
KMSP 130453Z 27004KT 10SM CLR 10/M02 A3006 RMK AO2 SLP181 T01001017
KMSP 130832Z 1309/1412 25004KT P6SM SKC
FM131400 16007KT P6SM SKC
FM131900 21015G25KT P6SM FEW150
FM140000 22008KT P6SM SCT250

 AIRPORT MAP

 RUNWAY INFORMATION
Runway 04 Runway length 11006 ft Runway width 150 ft
Runway elevation 832 ft Runway displaced threshold 1550 ft Runway heading 45
Runway 22 Runway length 11006 ft Runway width 150 ft
Runway elevation 827 ft Runway displaced threshold 988 ft Runway heading 225
Runway 12L Runway length 8000 ft Runway width 150 ft
Runway elevation 838 ft Runway displaced threshold 0 ft Runway heading 121
Runway 30R Runway length 8000 ft Runway width 150 ft
Runway elevation 819 ft Runway displaced threshold 0 ft Runway heading 301
Runway 12R Runway length 10000 ft Runway width 200 ft
Runway elevation 841 ft Runway displaced threshold 0 ft Runway heading 121
Runway 30L Runway length 10000 ft Runway width 200 ft
Runway elevation 813 ft Runway displaced threshold 0 ft Runway heading 301
Runway 17 Runway length 8000 ft Runway width 150 ft
Runway elevation 840 ft Runway displaced threshold 0 ft Runway heading 170
Runway 35 Runway length 8000 ft Runway width 150 ft
Runway elevation 833 ft Runway displaced threshold 0 ft Runway heading 350

 AIRPORT FREQUENCIES
Type APP Name APP Frequency 118.72 MHZ
Type ATIS Name ATIS Frequency 120.8 MHZ
Type CLD Name CLNC DEL Frequency 133.2 MHZ
Type DEP Name DEP Frequency 132.975 MHZ
Type GND Name GND Frequency 121.8 MHZ
Type MISC Name 934 AW BAS Frequency 28.267 MHZ
Type OPS Name 133 AW COM Frequency 31.12 MHZ
Type POST Name 934 AW COM Frequency 25.21 MHZ
Type PTD Name PTD Frequency 28.267 MHZ
Type RDO Name PRINCETON Frequency 122.3 MHZ
Type TWR Name TWR Frequency 123.675 MHZ
Type UNIC Name UNICOM Frequency 122.95 MHZ

 AIRPORT NEAR NAVIGATION AIDS
Type NDB Name Vagey Frequency 338 KHZ
Type NDB Name Narco Frequency 266 KHZ
Type VOR-DME Name Minneapolis Frequency 115300 KHZ

-